Time;durP1;ratioP1;P1;durP2;ratioP2;P2;SDS_P1;SDS_P2;PMS_P1;PMS_P2;Temp;Humidity;BMP_temperature;BMP_pressure;BME280_temperature;BME280_humidity;BME280_pressure;Samples;Min_cycle;Max_cycle;Signal;HPM_P1;HPM_P2
2022/03/08 00:00:17;;;;;;;;;;;;;;;0.33;63.44;102396.91;5068177;28;19920;-79
2022/03/08 00:02:43;;;;;;;;;;;;;;;0.31;63.24;102399.28;5063673;28;20265;-77
2022/03/08 00:05:08;;;;;;;;;;;;;;;0.36;63.08;102397.16;5065328;28;19935;-79
2022/03/08 00:07:33;;;;;;;;;;;;;;;0.35;63.09;102392.84;5067881;28;19951;-77
2022/03/08 00:09:59;;;;;;;;;;;;;;;0.35;63.21;102391.22;5067662;28;19920;-78
2022/03/08 00:12:24;;;;;;;;;;;;;;;0.37;63.16;102391.38;5043773;28;19928;-78
2022/03/08 00:14:49;;;;;;;;;;;;;;;0.37;63.00;102387.22;5067336;28;19925;-80
2022/03/08 00:17:15;;;;;;;;;;;;;;;0.38;62.36;102381.41;5068410;28;20346;-78
2022/03/08 00:19:40;;;;;;;;;;;;;;;0.38;62.58;102381.41;5068510;28;19928;-78
2022/03/08 00:22:05;;;;;;;;;;;;;;;0.40;62.50;102384.94;5062032;28;20350;-77
2022/03/08 00:24:32;;;;;;;;;;;;;;;0.39;62.64;102379.75;5062887;28;19925;-78
2022/03/08 00:26:57;;;;;;;;;;;;;;;0.41;62.15;102378.25;5065522;28;19934;-77
2022/03/08 00:29:22;;;;;;;;;;;;;;;0.40;62.10;102382.41;5068464;28;20356;-79
2022/03/08 00:31:48;;;;;;;;;;;;;;;0.38;61.93;102377.97;5068206;28;20492;-77
2022/03/08 00:34:13;;;;;;;;;;;;;;;0.42;62.04;102383.44;5045000;28;19920;-78
2022/03/08 00:36:38;;;;;;;;;;;;;;;0.40;61.84;102377.34;5066578;28;20261;-76
2022/03/08 00:39:04;;;;;;;;;;;;;;;0.35;61.98;102376.03;5067338;28;20270;-79
2022/03/08 00:41:29;;;;;;;;;;;;;;;0.30;62.17;102367.13;5067519;28;19916;-79
2022/03/08 00:43:56;;;;;;;;;;;;;;;0.33;61.93;102377.53;5050460;28;20292;-76
2022/03/08 00:46:21;;;;;;;;;;;;;;;0.28;61.94;102376.22;5063581;28;19928;-78
2022/03/08 00:48:46;;;;;;;;;;;;;;;0.23;61.97;102377.44;5051934;28;20039;-77
2022/03/08 00:51:12;;;;;;;;;;;;;;;0.19;62.04;102375.38;5066105;28;19920;-76
2022/03/08 00:53:38;;;;;;;;;;;;;;;0.15;61.93;102378.34;5066627;28;20014;-77
2022/03/08 00:56:03;;;;;;;;;;;;;;;0.16;61.70;102385.19;5061346;28;20718;-76
2022/03/08 00:58:29;;;;;;;;;;;;;;;0.14;61.88;102377.47;5063366;28;19932;-76
2022/03/08 01:00:54;;;;;;;;;;;;;;;0.14;61.75;102382.53;5067616;28;19974;-78
2022/03/08 01:03:19;;;;;;;;;;;;;;;0.15;61.72;102376.72;5064351;28;19924;-76
2022/03/08 01:05:45;;;;;;;;;;;;;;;0.16;61.37;102375.06;5067812;28;20033;-78
2022/03/08 01:08:10;;;;;;;;;;;;;;;0.13;61.32;102375.69;5067994;28;19954;-77
2022/03/08 01:10:35;;;;;;;;;;;;;;;0.10;61.78;102379.56;5064629;28;19920;-77
2022/03/08 01:13:01;;;;;;;;;;;;;;;0.09;61.43;102377.78;5066858;28;19997;-76
2022/03/08 01:15:27;;;;;;;;;;;;;;;0.06;61.51;102378.41;5066326;28;19932;-77
2022/03/08 01:17:53;;;;;;;;;;;;;;;0.08;61.23;102370.94;5063534;28;19917;-77
2022/03/08 01:20:18;;;;;;;;;;;;;;;0.08;61.87;102368.41;5065462;28;20292;-77
2022/03/08 01:22:44;;;;;;;;;;;;;;;0.05;61.69;102373.16;5064391;28;19928;-75
2022/03/08 01:25:10;;;;;;;;;;;;;;;0.07;61.56;102370.06;5065085;28;19924;-76
2022/03/08 01:27:35;;;;;;;;;;;;;;;0.05;61.57;102361.41;5066978;28;19928;-77
2022/03/08 01:30:01;;;;;;;;;;;;;;;0.02;61.73;102360.25;5064779;28;20219;-76
2022/03/08 01:32:26;;;;;;;;;;;;;;;-0.03;61.73;102357.28;5064071;28;19924;-78
2022/03/08 01:34:52;;;;;;;;;;;;;;;-0.04;61.73;102355.50;5064836;28;19932;-77
2022/03/08 01:37:17;;;;;;;;;;;;;;;-0.04;61.65;102346.28;5065418;28;19998;-76
2022/03/08 01:39:42;;;;;;;;;;;;;;;-0.06;61.90;102347.78;5065932;28;20380;-76
2022/03/08 01:42:13;;;;;;;;;;;;;;;-0.12;61.40;102344.69;5081067;28;19920;-77
2022/03/08 01:44:45;;;;;;;;;;;;;;;-0.16;61.81;102341.72;5066554;28;19969;-78
2022/03/08 01:47:17;;;;;;;;;;;;;;;-0.24;62.31;102335.94;5065237;28;19927;-78
2022/03/08 01:49:43;;;;;;;;;;;;;;;-0.20;62.61;102335.47;5065550;28;19920;-77
2022/03/08 01:52:08;;;;;;;;;;;;;;;-0.23;61.82;102335.19;5063747;28;19920;-76
2022/03/08 01:54:34;;;;;;;;;;;;;;;-0.27;62.05;102330.56;5062982;28;20293;-77
2022/03/08 01:56:59;;;;;;;;;;;;;;;-0.34;61.88;102331.63;5064211;28;19931;-77
2022/03/08 01:59:24;;;;;;;;;;;;;;;-0.42;62.51;102324.97;5064398;28;20463;-76
2022/03/08 02:01:50;;;;;;;;;;;;;;;-0.47;62.81;102326.16;5065793;28;19920;-77
2022/03/08 02:04:15;;;;;;;;;;;;;;;-0.48;62.45;102324.41;5060643;28;20361;-77
2022/03/08 02:06:40;;;;;;;;;;;;;;;-0.54;63.70;102321.28;5063804;28;20642;-76
2022/03/08 02:09:06;;;;;;;;;;;;;;;-0.59;63.14;102310.72;5047956;28;19977;-75
2022/03/08 02:11:31;;;;;;;;;;;;;;;-0.64;63.41;102314.44;5062160;28;20016;-76
2022/03/08 02:13:57;;;;;;;;;;;;;;;-0.67;63.79;102316.66;5062819;28;19920;-76
2022/03/08 02:16:22;;;;;;;;;;;;;;;-0.64;63.34;102308.50;5074525;28;19982;-76
2022/03/08 02:18:48;;;;;;;;;;;;;;;-0.63;63.16;102308.66;5065785;28;19929;-76
2022/03/08 02:21:13;;;;;;;;;;;;;;;-0.57;62.48;102315.91;5064257;28;19921;-76
2022/03/08 02:23:38;;;;;;;;;;;;;;;-0.61;63.38;102298.66;5064235;28;19931;-77
2022/03/08 02:26:03;;;;;;;;;;;;;;;-0.63;63.16;102305.22;5065242;28;19928;-77
2022/03/08 02:28:29;;;;;;;;;;;;;;;-0.66;63.29;102303.31;5062804;28;20005;-76
2022/03/08 02:30:54;;;;;;;;;;;;;;;-0.62;63.07;102300.31;5062003;28;20382;-76
2022/03/08 02:33:20;;;;;;;;;;;;;;;-0.64;62.79;102294.22;5063794;28;20411;-76
2022/03/08 02:35:45;;;;;;;;;;;;;;;-0.67;62.92;102293.94;5068648;28;19924;-76
2022/03/08 02:38:10;;;;;;;;;;;;;;;-0.69;63.79;102287.84;5062002;28;19928;-76
2022/03/08 02:40:37;;;;;;;;;;;;;;;-0.69;63.76;102282.78;5068196;28;19940;-76
2022/03/08 02:43:03;;;;;;;;;;;;;;;-0.67;63.22;102281.28;5069330;28;19982;-76
2022/03/08 02:45:28;;;;;;;;;;;;;;;-0.72;63.28;102276.59;5069186;28;19930;-76
2022/03/08 02:47:53;;;;;;;;;;;;;;;-0.76;63.55;102282.97;5067047;28;19944;-76
2022/03/08 02:50:19;;;;;;;;;;;;;;;-0.76;63.61;102280.44;5065730;28;20028;-76
2022/03/08 02:52:47;;;;;;;;;;;;;;;-0.76;63.03;102280.44;5083756;28;19924;-76
2022/03/08 02:55:13;;;;;;;;;;;;;;;-0.78;64.07;102284.47;5064963;28;20442;-76
2022/03/08 02:57:41;;;;;;;;;;;;;;;-0.76;64.02;102277.91;5066324;28;19924;-76
2022/03/08 03:00:08;;;;;;;;;;;;;;;-0.73;63.81;102264.66;5067670;28;19995;-77
2022/03/08 03:02:33;;;;;;;;;;;;;;;-0.70;63.77;102270.91;5066030;28;20329;-77
2022/03/08 03:04:59;;;;;;;;;;;;;;;-0.72;63.74;102258.91;5069445;28;20018;-77
2022/03/08 03:07:24;;;;;;;;;;;;;;;-0.73;63.49;102263.03;5067374;28;20372;-77
2022/03/08 03:09:50;;;;;;;;;;;;;;;-0.75;63.82;102258.59;5069309;28;19921;-77
2022/03/08 03:12:16;;;;;;;;;;;;;;;-0.79;63.34;102254.88;5064837;28;19920;-77
2022/03/08 03:14:41;;;;;;;;;;;;;;;-0.85;64.21;102251.75;5066585;28;20299;-77
2022/03/08 03:17:07;;;;;;;;;;;;;;;-0.89;64.35;102242.13;5068291;28;19932;-77
2022/03/08 03:19:32;;;;;;;;;;;;;;;-0.92;64.48;102242.72;5067766;28;20385;-77
2022/03/08 03:21:57;;;;;;;;;;;;;;;-0.95;64.23;102231.44;5069609;28;19928;-77
2022/03/08 03:24:22;;;;;;;;;;;;;;;-1.01;64.67;102223.28;5068159;28;19927;-76
2022/03/08 03:26:47;;;;;;;;;;;;;;;-1.05;65.68;102231.28;5063691;28;19924;-77
2022/03/08 03:29:13;;;;;;;;;;;;;;;-1.12;65.09;102224.78;5066621;28;19916;-76
2022/03/08 03:31:38;;;;;;;;;;;;;;;-1.15;65.11;102227.00;5068223;28;20381;-77
2022/03/08 03:34:03;;;;;;;;;;;;;;;-1.21;65.59;102234.00;5068472;28;19920;-76
2022/03/08 03:36:29;;;;;;;;;;;;;;;-1.18;66.09;102234.28;5066360;28;19951;-76
2022/03/08 03:38:54;;;;;;;;;;;;;;;-1.10;64.72;102234.25;5069531;28;19928;-77
2022/03/08 03:41:19;;;;;;;;;;;;;;;-1.08;65.10;102236.94;5050495;28;20303;-76
2022/03/08 03:43:45;;;;;;;;;;;;;;;-1.11;65.47;102236.63;5069675;28;20308;-78
2022/03/08 03:46:10;;;;;;;;;;;;;;;-1.16;65.66;102232.78;5057741;28;19935;-76
2022/03/08 03:48:35;;;;;;;;;;;;;;;-1.16;65.87;102236.19;5067474;28;20300;-77
2022/03/08 03:51:01;;;;;;;;;;;;;;;-1.11;65.60;102242.56;5066912;28;20376;-78
2022/03/08 03:53:26;;;;;;;;;;;;;;;-1.11;65.46;102240.06;5068075;28;19933;-77
2022/03/08 03:55:51;;;;;;;;;;;;;;;-1.17;65.93;102236.94;5049640;28;19932;-77
2022/03/08 03:58:16;;;;;;;;;;;;;;;-1.19;66.07;102240.97;5067593;28;19927;-77
2022/03/08 04:00:42;;;;;;;;;;;;;;;-1.17;66.27;102238.56;5067605;28;20340;-76
2022/03/08 04:03:07;;;;;;;;;;;;;;;-1.15;65.64;102238.00;5066520;28;19916;-76
2022/03/08 04:05:33;;;;;;;;;;;;;;;-1.13;65.75;102241.56;5067049;28;20074;-77
2022/03/08 04:07:58;;;;;;;;;;;;;;;-1.11;65.85;102237.53;5068974;28;20327;-77
2022/03/08 04:10:24;;;;;;;;;;;;;;;-1.08;65.89;102240.38;5068409;28;19920;-78
2022/03/08 04:12:49;;;;;;;;;;;;;;;-1.06;65.36;102235.47;5068143;28;19924;-76
2022/03/08 04:15:14;;;;;;;;;;;;;;;-1.00;65.89;102228.47;5068269;28;19938;-76
2022/03/08 04:17:39;;;;;;;;;;;;;;;-0.95;65.27;102224.75;5067853;28;20401;-75
2022/03/08 04:20:06;;;;;;;;;;;;;;;-0.94;65.12;102229.06;5062783;28;19928;-77
2022/03/08 04:22:31;;;;;;;;;;;;;;;-0.95;65.21;102218.81;5064254;28;20043;-77
2022/03/08 04:24:56;;;;;;;;;;;;;;;-0.95;65.40;102223.88;5066509;28;20627;-76
2022/03/08 04:27:21;;;;;;;;;;;;;;;-0.99;66.13;102220.16;5050305;28;19932;-78
2022/03/08 04:29:47;;;;;;;;;;;;;;;-1.02;65.29;102222.41;5044810;28;19924;-77
2022/03/08 04:32:12;;;;;;;;;;;;;;;-1.06;65.75;102221.94;5067595;28;19917;-76
2022/03/08 04:34:37;;;;;;;;;;;;;;;-1.07;65.71;102216.00;5067999;28;20022;-77
2022/03/08 04:37:03;;;;;;;;;;;;;;;-1.04;65.91;102217.91;5067905;28;19921;-77
2022/03/08 04:39:28;;;;;;;;;;;;;;;-1.01;64.77;102221.66;5068155;28;19920;-77
2022/03/08 04:41:53;;;;;;;;;;;;;;;-1.05;65.60;102213.63;5065875;28;19928;-76
2022/03/08 04:44:19;;;;;;;;;;;;;;;-1.06;65.43;102220.31;5066136;28;19925;-76
2022/03/08 04:46:44;;;;;;;;;;;;;;;-1.04;64.96;102222.97;5067015;28;20011;-76
2022/03/08 04:49:09;;;;;;;;;;;;;;;-1.07;65.75;102223.59;5066068;28;20343;-76
2022/03/08 04:51:34;;;;;;;;;;;;;;;-1.08;65.26;102217.66;5065729;28;19920;-76
2022/03/08 04:54:00;;;;;;;;;;;;;;;-1.11;66.10;102227.44;5061386;28;20415;-76
2022/03/08 04:56:25;;;;;;;;;;;;;;;-1.15;66.23;102222.84;5065287;28;21649;-75
2022/03/08 04:58:52;;;;;;;;;;;;;;;-1.15;65.31;102215.28;5067057;28;19924;-77
2022/03/08 05:01:17;;;;;;;;;;;;;;;-1.23;66.34;102220.31;5065008;28;19928;-76
2022/03/08 05:03:43;;;;;;;;;;;;;;;-1.28;66.44;102217.34;5067148;28;19921;-77
2022/03/08 05:06:08;;;;;;;;;;;;;;;-1.27;66.12;102214.09;5064960;28;19920;-76
2022/03/08 05:08:33;;;;;;;;;;;;;;;-1.30;66.11;102211.25;5065423;28;20373;-76
2022/03/08 05:10:59;;;;;;;;;;;;;;;-1.29;66.31;102210.50;5066252;28;19928;-76
2022/03/08 05:13:25;;;;;;;;;;;;;;;-1.28;66.15;102219.88;5046299;28;19921;-76
2022/03/08 05:15:50;;;;;;;;;;;;;;;-1.29;66.28;102214.66;5066578;28;20292;-75
2022/03/08 05:18:16;;;;;;;;;;;;;;;-1.29;66.81;102212.16;5065285;28;19959;-75
2022/03/08 05:20:41;;;;;;;;;;;;;;;-1.30;66.29;102213.78;5080035;28;20003;-77
2022/03/08 05:23:07;;;;;;;;;;;;;;;-1.39;66.30;102208.75;5063601;28;19947;-76
2022/03/08 05:25:32;;;;;;;;;;;;;;;-1.38;67.15;102200.44;5067883;28;19916;-75
2022/03/08 05:27:57;;;;;;;;;;;;;;;-1.35;66.49;102202.34;5060626;28;19920;-78
2022/03/08 05:30:23;;;;;;;;;;;;;;;-1.38;66.87;102195.38;5064341;28;21824;-74
2022/03/08 05:32:48;;;;;;;;;;;;;;;-1.35;66.82;102204.88;5066893;28;19928;-77
2022/03/08 05:35:14;;;;;;;;;;;;;;;-1.20;66.73;102197.91;5063180;28;19933;-74
2022/03/08 05:37:39;;;;;;;;;;;;;;;-1.14;66.49;102206.06;5061750;28;19928;-77
2022/03/08 05:40:05;;;;;;;;;;;;;;;-1.07;65.48;102195.81;5064606;28;19952;-78
2022/03/08 05:42:30;;;;;;;;;;;;;;;-0.99;65.68;102199.06;5067631;28;20404;-74
2022/03/08 05:44:56;;;;;;;;;;;;;;;-1.08;66.20;102209.19;5067580;28;19974;-78
2022/03/08 05:47:21;;;;;;;;;;;;;;;-1.11;66.69;102194.63;5062759;28;19964;-85
2022/03/08 05:49:46;;;;;;;;;;;;;;;-1.12;66.18;102202.06;5062609;28;20411;-82
2022/03/08 05:52:12;;;;;;;;;;;;;;;-1.18;67.08;102193.88;5062974;28;19928;-76
2022/03/08 05:54:37;;;;;;;;;;;;;;;-1.26;67.37;102198.22;5060517;28;20315;-75
2022/03/08 05:57:02;;;;;;;;;;;;;;;-1.25;67.16;102197.47;5064029;28;20398;-80
2022/03/08 05:59:27;;;;;;;;;;;;;;;-1.28;67.08;102196.25;5059174;28;19982;-80
2022/03/08 06:01:53;;;;;;;;;;;;;;;-1.27;67.53;102198.97;5058437;28;19929;-76
2022/03/08 06:04:18;;;;;;;;;;;;;;;-1.23;67.21;102188.38;5058121;28;19984;-80
2022/03/08 06:06:43;;;;;;;;;;;;;;;-1.26;67.55;102193.16;5057917;28;20540;-78
2022/03/08 06:09:08;;;;;;;;;;;;;;;-1.23;67.75;102195.06;5059345;28;19925;-77
2022/03/08 06:11:34;;;;;;;;;;;;;;;-1.20;67.80;102195.38;5063174;28;19924;-78
2022/03/08 06:13:59;;;;;;;;;;;;;;;-1.17;66.69;102199.06;5062979;28;20285;-80
2022/03/08 06:16:24;;;;;;;;;;;;;;;-1.15;67.69;102199.25;5063613;28;19921;-77
2022/03/08 06:18:50;;;;;;;;;;;;;;;-1.13;67.71;102200.28;5062477;28;19956;-79
2022/03/08 06:21:15;;;;;;;;;;;;;;;-1.10;67.37;102198.03;5062925;28;19920;-78
2022/03/08 06:23:40;;;;;;;;;;;;;;;-1.06;67.05;102200.13;5062107;28;19939;-78
2022/03/08 06:26:05;;;;;;;;;;;;;;;-1.05;67.78;102206.94;5064552;28;19928;-78
2022/03/08 06:28:31;;;;;;;;;;;;;;;-1.04;67.16;102200.25;5063424;28;19932;-79
2022/03/08 06:30:56;;;;;;;;;;;;;;;-0.99;66.97;102199.94;5063066;28;20277;-79
2022/03/08 06:33:21;;;;;;;;;;;;;;;-0.96;67.32;102205.31;5065032;28;19927;-79
2022/03/08 06:35:47;;;;;;;;;;;;;;;-0.90;66.48;102203.38;5059283;28;20515;-78
2022/03/08 06:38:12;;;;;;;;;;;;;;;-0.85;66.45;102203.78;5042191;28;20360;-79
2022/03/08 06:40:37;;;;;;;;;;;;;;;-0.69;66.34;102199.44;5063408;28;19928;-78
2022/03/08 06:43:02;;;;;;;;;;;;;;;-0.06;64.71;102196.06;5062849;28;19933;-78
2022/03/08 06:45:28;;;;;;;;;;;;;;;0.71;62.60;102198.78;5060965;28;19928;-81
2022/03/08 06:47:53;;;;;;;;;;;;;;;1.31;60.65;102191.34;5061636;28;19955;-78
2022/03/08 06:50:18;;;;;;;;;;;;;;;1.92;57.77;102190.59;5063052;28;20014;-77
2022/03/08 06:52:43;;;;;;;;;;;;;;;2.50;55.71;102191.22;5062531;28;19962;-79
2022/03/08 06:55:10;;;;;;;;;;;;;;;2.99;53.79;102192.63;5060560;28;20273;-78
2022/03/08 06:57:37;;;;;;;;;;;;;;;3.34;53.77;102199.63;5061444;28;19920;-78
2022/03/08 07:00:03;;;;;;;;;;;;;;;3.79;51.91;102193.75;5061682;28;20014;-78
2022/03/08 07:02:28;;;;;;;;;;;;;;;4.22;50.77;102188.59;5063745;28;19929;-77
2022/03/08 07:04:53;;;;;;;;;;;;;;;4.50;49.23;102191.53;5061823;28;19931;-78
2022/03/08 07:07:18;;;;;;;;;;;;;;;4.75;47.84;102186.56;5063367;28;20389;-78
2022/03/08 07:09:44;;;;;;;;;;;;;;;4.97;48.70;102188.97;5059270;28;19989;-78
2022/03/08 07:12:09;;;;;;;;;;;;;;;5.30;45.86;102193.03;5062306;28;19950;-79
2022/03/08 07:14:35;;;;;;;;;;;;;;;5.44;45.54;102181.25;5063220;28;20011;-79
2022/03/08 07:17:00;;;;;;;;;;;;;;;5.71;46.10;102189.94;5063812;28;19932;-79
2022/03/08 07:19:25;;;;;;;;;;;;;;;6.15;45.99;102185.31;5071510;28;19916;-79
2022/03/08 07:21:51;;;;;;;;;;;;;;;6.63;42.90;102196.13;5069521;28;19993;-80
2022/03/08 07:24:16;;;;;;;;;;;;;;;6.83;42.44;102190.63;5074305;28;20035;-78
2022/03/08 07:26:41;;;;;;;;;;;;;;;7.16;40.89;102197.00;5074346;28;19928;-76
2022/03/08 07:29:06;;;;;;;;;;;;;;;7.44;40.60;102191.91;5072820;28;20328;-77
2022/03/08 07:31:32;;;;;;;;;;;;;;;7.56;39.74;102183.22;5071601;28;20011;-77
2022/03/08 07:33:58;;;;;;;;;;;;;;;7.59;41.42;102194.56;5071968;28;19920;-80
2022/03/08 07:36:23;;;;;;;;;;;;;;;7.80;39.54;102192.41;5074338;28;20006;-81
2022/03/08 07:38:49;;;;;;;;;;;;;;;8.11;37.94;102189.97;5078395;28;19928;-79
2022/03/08 07:41:14;;;;;;;;;;;;;;;8.51;37.35;102180.41;5073622;28;19954;-81
2022/03/08 07:43:39;;;;;;;;;;;;;;;8.77;37.28;102181.00;5052544;28;20280;-78
2022/03/08 07:46:06;;;;;;;;;;;;;;;9.18;36.35;102173.03;5071280;28;19925;-79
2022/03/08 07:48:31;;;;;;;;;;;;;;;9.54;37.50;102174.13;5083391;28;19920;-79
2022/03/08 07:50:57;;;;;;;;;;;;;;;9.96;36.22;102166.03;5077525;28;19981;-81
2022/03/08 07:53:22;;;;;;;;;;;;;;;10.18;34.54;102168.84;5079845;28;19966;-79
2022/03/08 07:55:48;;;;;;;;;;;;;;;9.98;34.79;102166.97;5078899;28;19920;-78
2022/03/08 07:58:14;;;;;;;;;;;;;;;10.25;36.24;102172.66;5078909;28;19936;-78
2022/03/08 08:00:40;;;;;;;;;;;;;;;10.59;34.89;102178.66;5074673;28;19962;-79
2022/03/08 08:03:05;;;;;;;;;;;;;;;10.29;34.07;102174.56;5076877;28;19916;-78
2022/03/08 08:05:33;;;;;;;;;;;;;;;10.06;34.07;102175.94;5079961;28;19916;-79
2022/03/08 08:07:59;;;;;;;;;;;;;;;9.90;34.96;102177.75;5074410;28;19966;-78
2022/03/08 08:10:24;;;;;;;;;;;;;;;10.12;34.41;102187.41;5077361;28;19932;-80
2022/03/08 08:12:49;;;;;;;;;;;;;;;10.31;34.67;102175.53;5070404;28;19935;-80
2022/03/08 08:15:14;;;;;;;;;;;;;;;10.69;33.84;102167.13;5070236;28;19924;-77
2022/03/08 08:17:40;;;;;;;;;;;;;;;10.42;33.23;102176.94;5070593;28;19978;-76
2022/03/08 08:20:06;;;;;;;;;;;;;;;10.21;34.87;102181.88;5066530;28;19920;-77
2022/03/08 08:22:31;;;;;;;;;;;;;;;10.36;34.08;102184.34;5073624;28;19951;-80
2022/03/08 08:24:56;;;;;;;;;;;;;;;10.64;32.80;102189.19;5071980;28;20629;-77
2022/03/08 08:27:22;;;;;;;;;;;;;;;10.47;32.94;102185.78;5072692;28;19921;-81
2022/03/08 08:29:47;;;;;;;;;;;;;;;9.99;33.85;102191.84;5073521;28;19974;-77
2022/03/08 08:32:12;;;;;;;;;;;;;;;9.83;34.05;102193.66;5069722;28;19927;-79
2022/03/08 08:34:37;;;;;;;;;;;;;;;10.20;33.97;102190.41;5076266;28;19935;-82
2022/03/08 08:37:03;;;;;;;;;;;;;;;10.92;32.40;102204.25;5068352;28;19935;-82
2022/03/08 08:39:28;;;;;;;;;;;;;;;11.32;32.05;102191.56;5069170;28;19928;-81
2022/03/08 08:41:53;;;;;;;;;;;;;;;11.62;32.27;102186.94;5072300;28;20007;-80
2022/03/08 08:44:19;;;;;;;;;;;;;;;12.00;30.82;102186.06;5068759;28;20471;-82
2022/03/08 08:46:44;;;;;;;;;;;;;;;12.59;30.09;102177.38;5066621;28;19925;-78
2022/03/08 08:49:09;;;;;;;;;;;;;;;12.89;29.62;102169.09;5063747;28;22071;-82
2022/03/08 08:51:35;;;;;;;;;;;;;;;12.67;29.00;102187.13;5067340;28;20369;-81
2022/03/08 08:54:00;;;;;;;;;;;;;;;12.28;29.95;102187.25;5065442;28;19960;-83
2022/03/08 08:56:26;;;;;;;;;;;;;;;12.28;29.60;102175.22;5063005;28;19978;-80
2022/03/08 08:58:51;;;;;;;;;;;;;;;12.13;29.18;102189.16;5062389;28;20380;-81
2022/03/08 09:01:16;;;;;;;;;;;;;;;12.23;29.77;102176.72;5067380;28;20393;-80
2022/03/08 09:03:42;;;;;;;;;;;;;;;13.22;30.08;102171.25;5065735;28;19934;-79
2022/03/08 09:06:07;;;;;;;;;;;;;;;14.41;27.84;102160.84;5065051;28;19924;-76
2022/03/08 09:08:32;;;;;;;;;;;;;;;14.53;27.13;102167.31;5065289;28;19969;-81
2022/03/08 09:10:58;;;;;;;;;;;;;;;14.35;26.59;102176.19;5065167;28;19982;-80
2022/03/08 09:13:23;;;;;;;;;;;;;;;14.13;26.38;102166.81;5065308;28;19928;-81
2022/03/08 09:15:49;;;;;;;;;;;;;;;14.28;27.91;102158.69;5067456;28;19920;-80
2022/03/08 09:18:14;;;;;;;;;;;;;;;14.89;26.99;102158.13;5066352;28;19936;-80
2022/03/08 09:20:40;;;;;;;;;;;;;;;14.72;25.69;102162.75;5051491;28;19971;-81
2022/03/08 09:23:06;;;;;;;;;;;;;;;14.39;27.20;102156.47;5064042;28;19928;-78
2022/03/08 09:25:33;;;;;;;;;;;;;;;14.84;25.81;102149.31;5065335;28;19962;-79
2022/03/08 09:28:06;;;;;;;;;;;;;;;15.16;25.12;102134.75;5064479;28;20379;-77
2022/03/08 09:30:32;;;;;;;;;;;;;;;15.75;25.37;102142.50;5064516;28;19920;-81
2022/03/08 09:32:58;;;;;;;;;;;;;;;16.00;24.57;102123.28;5063833;28;19917;-79
2022/03/08 09:35:24;;;;;;;;;;;;;;;14.94;25.05;102130.66;5064635;28;19916;-79
2022/03/08 09:37:49;;;;;;;;;;;;;;;14.56;25.63;102121.72;5065501;28;19932;-83
2022/03/08 09:40:14;;;;;;;;;;;;;;;15.01;25.36;102127.41;5063215;28;20043;-78
2022/03/08 09:42:40;;;;;;;;;;;;;;;14.57;25.90;102120.00;5063593;28;19947;-77
2022/03/08 09:45:05;;;;;;;;;;;;;;;15.05;25.78;102132.69;5061527;28;19936;-78
2022/03/08 09:47:31;;;;;;;;;;;;;;;15.92;24.90;102120.50;5063369;28;19924;-77
2022/03/08 09:49:56;;;;;;;;;;;;;;;15.42;24.02;102113.91;5062351;28;20373;-77
2022/03/08 09:52:21;;;;;;;;;;;;;;;15.43;25.13;102106.16;5059721;28;19929;-78
2022/03/08 09:54:47;;;;;;;;;;;;;;;15.22;24.03;102103.81;5062141;28;19924;-80
2022/03/08 09:57:13;;;;;;;;;;;;;;;15.34;24.74;102105.91;5062145;28;19963;-80
2022/03/08 09:59:39;;;;;;;;;;;;;;;15.68;24.06;102107.75;5064582;28;20434;-79
2022/03/08 10:02:05;;;;;;;;;;;;;;;15.98;24.38;102112.88;5065662;28;19920;-80
2022/03/08 10:04:30;;;;;;;;;;;;;;;16.08;23.87;102119.19;5063190;28;19924;-78
2022/03/08 10:06:56;;;;;;;;;;;;;;;16.26;23.27;102097.97;5065427;28;19917;-79
2022/03/08 10:09:22;;;;;;;;;;;;;;;16.43;22.59;102101.84;5064256;28;20026;-78
2022/03/08 10:11:52;;;;;;;;;;;;;;;16.54;22.56;102105.59;5064426;28;20016;-78
2022/03/08 10:14:38;;;;;;;;;;;;;;;16.86;22.61;102100.25;5067497;28;20331;-80
2022/03/08 10:17:04;;;;;;;;;;;;;;;17.47;22.10;102105.84;5072330;28;19928;-79
2022/03/08 10:19:29;;;;;;;;;;;;;;;18.08;22.30;102102.69;5074494;28;19950;-79
2022/03/08 10:21:57;;;;;;;;;;;;;;;18.23;20.70;102089.03;5071199;28;19932;-77
2022/03/08 10:24:26;;;;;;;;;;;;;;;17.69;20.48;102102.81;5067041;28;19997;-76
2022/03/08 10:27:03;;;;;;;;;;;;;;;17.14;22.25;102086.16;5066826;28;20353;-78
2022/03/08 10:29:29;;;;;;;;;;;;;;;17.71;21.11;102082.91;5081139;28;20289;-80
2022/03/08 10:32:03;;;;;;;;;;;;;;;17.72;21.33;102078.63;5064111;28;19977;-79
2022/03/08 10:34:29;;;;;;;;;;;;;;;17.80;21.72;102075.31;5064854;28;19967;-78
2022/03/08 10:37:19;;;;;;;;;;;;;;;17.94;21.14;102079.03;5062684;28;20416;-80
2022/03/08 10:39:51;;;;;;;;;;;;;;;17.99;20.11;102079.09;5054998;28;19920;-81
2022/03/08 10:42:24;;;;;;;;;;;;;;;17.24;21.09;102067.31;5067522;28;19924;-79
2022/03/08 10:44:49;;;;;;;;;;;;;;;17.17;20.54;102088.81;5067936;28;19916;-78
2022/03/08 10:47:15;;;;;;;;;;;;;;;17.48;20.84;102082.50;5067425;28;19942;-78
2022/03/08 10:50:07;;;;;;;;;;;;;;;17.55;20.89;102081.75;5074033;28;19920;-78
2022/03/08 10:52:34;;;;;;;;;;;;;;;17.29;20.65;102068.28;5063191;28;20010;-78
2022/03/08 10:55:19;;;;;;;;;;;;;;;16.33;21.29;102071.34;5067402;28;20388;-77
2022/03/08 10:57:49;;;;;;;;;;;;;;;16.37;21.48;102070.56;5071816;28;19923;-79
2022/03/08 11:00:15;;;;;;;;;;;;;;;17.36;21.47;102051.94;5076366;28;19916;-77
2022/03/08 11:02:49;;;;;;;;;;;;;;;17.91;20.05;102057.28;5072932;28;19938;-76
2022/03/08 11:05:15;;;;;;;;;;;;;;;17.79;20.51;102059.69;5071379;28;20319;-81
2022/03/08 11:07:40;;;;;;;;;;;;;;;17.11;21.06;102057.50;5074577;28;19928;-80
2022/03/08 11:10:08;;;;;;;;;;;;;;;17.77;20.56;102057.03;5074212;28;19984;-80
2022/03/08 11:12:33;;;;;;;;;;;;;;;17.48;20.04;102051.28;5075071;28;19916;-81
2022/03/08 11:14:58;;;;;;;;;;;;;;;17.12;20.91;102057.53;5072473;28;19920;-81
2022/03/08 11:17:24;;;;;;;;;;;;;;;16.85;20.97;102064.75;5073559;28;19924;-80
2022/03/08 11:19:50;;;;;;;;;;;;;;;17.03;20.93;102059.06;5072897;28;19924;-79
2022/03/08 11:22:18;;;;;;;;;;;;;;;17.10;21.16;102059.19;5049740;28;19921;-78
2022/03/08 11:24:44;;;;;;;;;;;;;;;17.00;20.94;102062.47;5071558;28;19920;-80
2022/03/08 11:27:11;;;;;;;;;;;;;;;16.84;21.24;102055.19;5071149;28;19939;-81
2022/03/08 11:29:37;;;;;;;;;;;;;;;16.87;21.60;102063.06;5067204;28;19946;-80
2022/03/08 11:32:05;;;;;;;;;;;;;;;16.82;21.12;102043.91;5067219;28;20376;-80
2022/03/08 11:34:40;;;;;;;;;;;;;;;17.02;21.50;102055.59;5067107;28;19926;-78
2022/03/08 11:37:18;;;;;;;;;;;;;;;17.30;21.07;102048.34;5069063;28;19921;-79
2022/03/08 11:39:44;;;;;;;;;;;;;;;17.74;20.38;102035.31;5085546;28;20300;-81
2022/03/08 11:42:20;;;;;;;;;;;;;;;17.93;20.99;102030.44;5067358;28;19917;-79
2022/03/08 11:45:02;;;;;;;;;;;;;;;18.75;19.53;102024.72;5067875;28;19925;-80
2022/03/08 11:47:42;;;;;;;;;;;;;;;18.26;19.86;102028.31;5070223;28;19924;-82
2022/03/08 11:50:28;;;;;;;;;;;;;;;17.25;20.84;102024.84;5070466;28;19928;-76
2022/03/08 11:53:08;;;;;;;;;;;;;;;17.01;20.81;102022.66;5060361;28;19936;-78
2022/03/08 11:55:35;;;;;;;;;;;;;;;16.81;21.66;102003.19;5067996;28;20034;-81
2022/03/08 11:58:04;;;;;;;;;;;;;;;17.30;21.13;101999.84;5074535;28;20007;-78
2022/03/08 12:00:29;;;;;;;;;;;;;;;17.58;20.76;102000.31;5066447;28;20050;-77
2022/03/08 12:02:56;;;;;;;;;;;;;;;17.40;20.53;102006.06;5066646;28;20023;-81
2022/03/08 12:05:40;;;;;;;;;;;;;;;17.53;20.54;102005.41;5067970;28;20415;-83
2022/03/08 12:08:24;;;;;;;;;;;;;;;17.85;20.36;102000.81;5072441;28;20229;-80
2022/03/08 12:10:52;;;;;;;;;;;;;;;17.62;20.29;101995.19;5073549;28;20312;-82
2022/03/08 12:13:23;;;;;;;;;;;;;;;17.94;20.23;102000.94;5070918;28;20304;-80
2022/03/08 12:16:06;;;;;;;;;;;;;;;18.10;20.01;101998.59;5071135;28;19943;-82
2022/03/08 12:18:36;;;;;;;;;;;;;;;17.47;20.79;101983.63;5066477;28;20494;-81
2022/03/08 12:21:16;;;;;;;;;;;;;;;18.30;19.82;101988.47;5067214;28;19920;-82
2022/03/08 12:23:55;;;;;;;;;;;;;;;18.67;19.27;102006.38;5065363;28;19924;-82
2022/03/08 12:26:25;;;;;;;;;;;;;;;17.61;19.82;101990.84;5063750;28;19955;-84
2022/03/08 12:29:11;;;;;;;;;;;;;;;17.64;20.49;101985.69;5067667;28;19963;-82
2022/03/08 12:31:55;;;;;;;;;;;;;;;17.57;20.22;101989.03;5070385;28;19955;-82
2022/03/08 12:34:32;;;;;;;;;;;;;;;16.48;21.21;101993.78;5070775;28;20027;-79